Time;durP1;ratioP1;P1;durP2;ratioP2;P2;SDS_P1;SDS_P2;PMS_P1;PMS_P2;Temp;Humidity;BMP_temperature;BMP_pressure;BME280_temperature;BME280_humidity;BME280_pressure;Samples;Min_cycle;Max_cycle;Signal;HPM_P1;HPM_P2
2022/08/27 00:02:13;;;;;;;16.88;6.13;;;640.50;2432.00;;;;;;5063429;28;20044;-78
2022/08/27 00:04:40;;;;;;;16.70;6.05;;;640.50;2432.00;;;;;;5071891;28;20028;-75
2022/08/27 00:07:07;;;;;;;18.70;7.00;;;640.60;2432.00;;;;;;5056846;28;20473;-76
2022/08/27 00:09:34;;;;;;;16.98;6.03;;;640.60;2432.00;;;;;;5074388;28;20028;-75
2022/08/27 00:12:00;;;;;;;25.20;6.07;;;640.60;2432.00;;;;;;5074743;28;20100;-77
2022/08/27 00:14:27;;;;;;;18.73;5.57;;;640.70;2432.00;;;;;;5074532;28;20032;-77
2022/08/27 00:16:54;;;;;;;15.63;6.00;;;640.80;2432.00;;;;;;5074904;28;20021;-76
2022/08/27 00:19:20;;;;;;;17.35;6.45;;;640.80;2432.00;;;;;;5056633;28;20021;-76
2022/08/27 00:21:47;;;;;;;18.30;6.05;;;640.80;2432.00;;;;;;5074419;28;20031;-77
2022/08/27 00:24:13;;;;;;;16.27;6.50;;;640.90;2432.00;;;;;;5074007;28;20074;-77
2022/08/27 00:26:39;;;;;;;16.48;6.22;;;640.90;2432.00;;;;;;5074185;28;20036;-75
2022/08/27 00:29:05;;;;;;;17.73;6.10;;;640.90;2432.00;;;;;;5074531;28;20044;-78
2022/08/27 00:31:31;;;;;;;15.80;5.28;;;640.70;2432.00;;;;;;5074218;28;20031;-78
2022/08/27 00:33:57;;;;;;;14.60;5.65;;;640.80;2432.00;;;;;;5074405;28;20024;-77
2022/08/27 00:36:24;;;;;;;21.35;6.18;;;640.90;2432.00;;;;;;5074271;28;20016;-75
2022/08/27 00:38:50;;;;;;;12.73;5.63;;;640.90;2432.00;;;;;;5069213;28;20024;-77
2022/08/27 00:41:18;;;;;;;13.35;5.78;;;640.90;2432.00;;;;;;5064698;28;20027;-76
2022/08/27 00:43:49;;;;;;;18.92;6.45;;;640.90;2432.00;;;;;;5074100;28;20023;-78
2022/08/27 00:46:26;;;;;;;21.05;7.43;;;640.90;2432.00;;;;;;5073845;28;20036;-77
2022/08/27 00:48:59;;;;;;;18.80;8.13;;;640.60;2432.00;;;;;;5073797;28;20017;-77
2022/08/27 00:51:26;;;;;;;13.63;6.60;;;640.90;2432.00;;;;;;5074058;28;20078;-77
2022/08/27 00:53:53;;;;;;;11.23;6.28;;;640.80;2432.00;;;;;;5073599;28;20021;-77
2022/08/27 00:56:26;;;;;;;17.15;7.70;;;640.70;2432.00;;;;;;5073617;28;20053;-77
2022/08/27 00:58:53;;;;;;;22.63;6.88;;;640.70;2432.00;;;;;;5043855;28;20075;-76
2022/08/27 01:01:29;;;;;;;18.80;6.43;;;640.60;2432.00;;;;;;5071456;28;20471;-76
2022/08/27 01:03:58;;;;;;;21.42;7.30;;;640.60;2432.00;;;;;;5055952;28;20486;-78
2022/08/27 01:06:29;;;;;;;16.45;6.03;;;640.60;2432.00;;;;;;5073553;28;20075;-75
2022/08/27 01:09:03;;;;;;;18.35;7.25;;;640.60;2432.00;;;;;;5055061;28;20048;-76
2022/08/27 01:11:30;;;;;;;18.60;6.97;;;640.70;2432.00;;;;;;5051682;28;20025;-76
2022/08/27 01:13:56;;;;;;;14.93;7.28;;;640.80;2432.00;;;;;;5063146;28;20025;-76
2022/08/27 01:16:25;;;;;;;28.30;8.00;;;640.90;2432.00;;;;;;5073680;28;20025;-75
2022/08/27 01:18:53;;;;;;;19.27;7.10;;;640.90;2432.00;;;;;;5073274;28;20150;-78
2022/08/27 01:21:23;;;;;;;13.63;7.15;;;640.90;2432.00;;;;;;5054910;28;20028;-75
2022/08/27 01:24:13;;;;;;;20.17;8.20;;;640.90;2432.00;;;;;;5041763;28;20090;-75
2022/08/27 01:26:40;;;;;;;18.33;6.72;;;640.70;2432.00;;;;;;5037993;28;20076;-75
2022/08/27 01:29:06;;;;;;;23.75;7.07;;;640.60;2432.00;;;;;;5073255;28;20071;-77
2022/08/27 01:31:32;;;;;;;22.10;7.78;;;640.60;2432.00;;;;;;5055017;28;20505;-75
2022/08/27 01:34:05;;;;;;;20.75;8.45;;;640.60;2432.00;;;;;;5073100;28;20052;-76
2022/08/27 01:36:31;;;;;;;20.35;7.43;;;640.60;2432.00;;;;;;5072887;28;20549;-78
2022/08/27 01:38:57;;;;;;;20.17;7.55;;;640.80;2432.00;;;;;;5072915;28;20024;-75
2022/08/27 01:41:23;;;;;;;18.45;7.13;;;640.60;2432.00;;;;;;5072740;28;20374;-77
2022/08/27 01:43:49;;;;;;;21.13;7.30;;;640.60;2432.00;;;;;;5054794;28;20017;-78
2022/08/27 01:46:22;;;;;;;17.70;7.60;;;640.20;2432.00;;;;;;5052970;28;20032;-76
2022/08/27 01:48:48;;;;;;;16.00;8.13;;;;;;;;;;5055005;28;20071;-75
2022/08/27 01:51:13;;;;;;;24.52;8.27;;;615.00;2432.00;;;;;;5072406;28;20501;-75
2022/08/27 01:53:39;;;;;;;21.50;8.75;;;615.00;2432.00;;;;;;5072380;28;20024;-76
2022/08/27 01:56:05;;;;;;;22.13;8.23;;;614.90;2432.00;;;;;;5072478;28;20078;-77
2022/08/27 01:58:32;;;;;;;19.08;7.70;;;614.90;2432.00;;;;;;5072551;28;20067;-76
2022/08/27 02:01:07;;;;;;;21.15;8.27;;;614.60;2432.00;;;;;;5072658;28;20051;-76
2022/08/27 02:03:35;;;;;;;25.00;8.57;;;614.80;2432.00;;;;;;5072559;28;20032;-78
2022/08/27 02:06:04;;;;;;;15.70;8.52;;;615.00;2432.00;;;;;;5072117;28;20025;-76
2022/08/27 02:08:31;;;;;;;16.23;7.57;;;615.00;2432.00;;;;;;5054675;28;20024;-75
2022/08/27 02:10:57;;;;;;;20.52;8.00;;;614.90;2432.00;;;;;;5072458;28;20024;-75
2022/08/27 02:13:22;;;;;;;17.08;7.28;;;614.70;2432.00;;;;;;5054570;28;20035;-77
2022/08/27 02:15:48;;;;;;;12.38;7.85;;;614.60;2432.00;;;;;;5072301;28;20032;-76
2022/08/27 02:18:15;;;;;;;19.55;9.57;;;614.50;2432.00;;;;;;5054291;28;20378;-76
2022/08/27 02:20:45;;;;;;;19.55;9.68;;;614.50;2432.00;;;;;;5072112;28;20032;-77
2022/08/27 02:23:11;;;;;;;21.77;9.45;;;614.70;2432.00;;;;;;5071932;28;20021;-75
2022/08/27 02:25:37;;;;;;;18.92;9.02;;;614.50;2432.00;;;;;;5053985;28;20036;-76
2022/08/27 02:28:04;;;;;;;23.63;9.55;;;614.40;2432.00;;;;;;5071462;28;20374;-76
2022/08/27 02:30:31;;;;;;;22.30;8.50;;;589.70;2432.00;;;;;;5034479;28;20105;-76
2022/08/27 02:32:59;;;;;;;16.13;8.27;;;614.40;2432.00;;;;;;5046405;28;20554;-77
2022/08/27 02:35:26;;;;;;;22.92;8.77;;;614.50;2432.00;;;;;;5072248;28;20027;-75
2022/08/27 02:37:52;;;;;;;18.38;8.32;;;614.40;2432.00;;;;;;5071965;28;20021;-76
2022/08/27 02:40:21;;;;;;;25.40;8.75;;;589.70;2432.00;;;;;;5071932;28;20067;-75
2022/08/27 02:42:47;;;;;;;19.50;8.98;;;589.70;2432.00;;;;;;5071680;28;20382;-75
2022/08/27 02:45:14;;;;;;;19.98;8.63;;;589.70;2432.00;;;;;;5071605;28;20033;-75
2022/08/27 02:47:40;;;;;;;18.25;8.90;;;589.60;2432.00;;;;;;5072108;28;20020;-77
2022/08/27 02:50:06;;;;;;;19.05;9.10;;;589.60;2432.00;;;;;;5071339;28;20509;-75
2022/08/27 02:52:32;;;;;;;18.77;9.38;;;589.40;2432.00;;;;;;5071821;28;20025;-77
2022/08/27 02:54:58;;;;;;;17.38;8.82;;;589.50;2432.00;;;;;;5071508;28;20060;-75
2022/08/27 02:57:25;;;;;;;23.15;10.00;;;589.60;2432.00;;;;;;5058308;28;20055;-75
2022/08/27 02:59:51;;;;;;;22.98;9.13;;;589.60;2432.00;;;;;;5071503;28;20029;-77
2022/08/27 03:02:18;;;;;;;17.50;9.70;;;589.50;2432.00;;;;;;5075407;28;20021;-76
2022/08/27 03:04:44;;;;;;;16.58;9.40;;;589.30;2432.00;;;;;;5075680;28;20107;-76
2022/08/27 03:07:10;;;;;;;17.33;9.00;;;589.20;2432.00;;;;;;5058036;28;20411;-77
2022/08/27 03:09:36;;;;;;;18.55;8.80;;;589.10;2432.00;;;;;;5075570;28;20025;-76
2022/08/27 03:12:03;;;;;;;23.58;9.77;;;589.30;2432.00;;;;;;5075330;28;20034;-74
2022/08/27 03:14:28;;;;;;;21.55;8.30;;;589.40;2432.00;;;;;;5057803;28;20028;-77
2022/08/27 03:16:54;;;;;;;20.33;9.70;;;589.30;2432.00;;;;;;5057239;28;20047;-77
2022/08/27 03:19:20;;;;;;;19.38;9.73;;;589.20;2432.00;;;;;;5075827;28;20468;-77
2022/08/27 03:21:47;;;;;;;28.90;11.23;;;589.30;2432.00;;;;;;5075337;28;20016;-76
2022/08/27 03:24:13;;;;;;;27.52;12.15;;;589.40;2432.00;;;;;;5057432;28;20086;-75
2022/08/27 03:26:39;;;;;;;21.35;10.52;;;589.60;2432.00;;;;;;5074479;28;20037;-76
2022/08/27 03:29:06;;;;;;;28.55;11.93;;;589.60;2432.00;;;;;;5075607;28;20032;-75
2022/08/27 03:31:32;;;;;;;18.35;10.35;;;589.50;2432.00;;;;;;5075096;28;20024;-75
2022/08/27 03:34:00;;;;;;;25.88;11.25;;;589.30;2432.00;;;;;;5075593;28;20027;-75
2022/08/27 03:36:28;;;;;;;22.45;11.32;;;589.40;2432.00;;;;;;5075293;28;20028;-76
2022/08/27 03:38:55;;;;;;;20.33;10.85;;;589.40;2432.00;;;;;;5075315;28;20073;-75
2022/08/27 03:41:22;;;;;;;20.92;10.93;;;589.40;2432.00;;;;;;5075342;28;20032;-76
2022/08/27 03:43:51;;;;;;;36.30;13.13;;;589.30;2432.00;;;;;;5071391;28;20028;-75
2022/08/27 03:46:18;;;;;;;21.58;11.07;;;589.20;2432.00;;;;;;5065090;28;20055;-74
2022/08/27 03:48:45;;;;;;;25.52;11.80;;;589.20;2432.00;;;;;;5074915;28;20076;-75
2022/08/27 03:51:13;;;;;;;23.20;11.82;;;589.30;2432.00;;;;;;5075178;28;20027;-76
2022/08/27 03:53:41;;;;;;;22.45;11.52;;;589.40;2432.00;;;;;;5074619;28;20020;-75
2022/08/27 03:56:08;;;;;;;27.90;10.68;;;589.50;2432.00;;;;;;5053602;28;20540;-76
2022/08/27 03:58:35;;;;;;;19.63;10.50;;;589.60;2432.00;;;;;;5064097;28;20055;-75
2022/08/27 04:01:01;;;;;;;25.50;11.77;;;589.60;2432.00;;;;;;5074614;28;20024;-74
2022/08/27 04:03:27;;;;;;;21.75;11.27;;;589.60;2432.00;;;;;;5075041;28;20016;-75
2022/08/27 04:05:57;;;;;;;23.88;11.35;;;589.60;2432.00;;;;;;5074601;28;20036;-75
2022/08/27 04:08:23;;;;;;;18.33;10.65;;;589.40;2432.00;;;;;;5074816;28;20351;-75
2022/08/27 04:10:50;;;;;;;21.90;10.68;;;589.30;2432.00;;;;;;5074447;28;20516;-75
2022/08/27 04:13:16;;;;;;;23.02;11.02;;;589.30;2432.00;;;;;;5055861;28;20477;-75
2022/08/27 04:15:47;;;;;;;24.63;10.68;;;589.40;2432.00;;;;;;5074404;28;20032;-76
2022/08/27 04:18:15;;;;;;;26.55;11.65;;;589.30;2432.00;;;;;;5074305;28;20008;-76
2022/08/27 04:20:46;;;;;;;25.02;11.52;;;589.40;2432.00;;;;;;5074709;28;20092;-74
2022/08/27 04:23:12;;;;;;;18.73;9.98;;;589.40;2432.00;;;;;;5074207;28;20028;-75
2022/08/27 04:25:42;;;;;;;31.88;12.45;;;589.40;2432.00;;;;;;5074275;28;20049;-75
2022/08/27 04:28:08;;;;;;;29.17;11.60;;;589.40;2432.00;;;;;;5074102;28;20543;-75
2022/08/27 04:30:39;;;;;;;25.45;11.73;;;589.50;2432.00;;;;;;5074360;28;20032;-75
2022/08/27 04:33:05;;;;;;;24.75;11.38;;;589.50;2432.00;;;;;;5074114;28;20020;-75
2022/08/27 04:35:30;;;;;;;25.48;11.75;;;589.70;2432.00;;;;;;5074154;28;20470;-75
2022/08/27 04:37:56;;;;;;;20.50;11.65;;;589.70;2432.00;;;;;;5074283;28;20028;-75
2022/08/27 04:41:18;;;;;;;23.58;11.10;;;614.40;2432.00;;;;;;5055493;28;20494;-75
2022/08/27 04:43:08;;;;;;;20.83;9.95;;;614.40;2432.00;;;;;;5073792;28;20100;-75
2022/08/27 04:45:41;;;;;;;19.58;10.32;;;614.40;2432.00;;;;;;5073650;28;20119;-75
2022/08/27 04:48:07;;;;;;;17.85;10.50;;;614.50;2432.00;;;;;;5073824;28;20024;-75
2022/08/27 04:50:33;;;;;;;18.90;11.15;;;614.50;2432.00;;;;;;5056036;28;20020;-74
2022/08/27 04:53:00;;;;;;;21.52;10.00;;;614.50;2432.00;;;;;;5073888;28;20020;-75
2022/08/27 04:55:26;;;;;;;17.08;10.52;;;614.60;2432.00;;;;;;5073544;28;20051;-77
2022/08/27 04:57:52;;;;;;;25.08;10.60;;;614.70;2432.00;;;;;;5059321;28;20128;-74
2022/08/27 05:00:18;;;;;;;24.00;11.30;;;614.80;2432.00;;;;;;5073837;28;20052;-74
2022/08/27 05:02:44;;;;;;;24.27;12.07;;;614.80;2432.00;;;;;;5073264;28;20042;-74
2022/08/27 05:05:09;;;;;;;25.08;12.02;;;614.80;2432.00;;;;;;5073609;28;20116;-75
2022/08/27 05:07:35;;;;;;;24.25;10.55;;;614.80;2432.00;;;;;;5073382;28;20428;-73
2022/08/27 05:10:01;;;;;;;18.13;10.93;;;614.80;2432.00;;;;;;5073612;28;20027;-73
2022/08/27 05:12:26;;;;;;;21.60;11.15;;;614.80;2432.00;;;;;;5073102;28;20063;-74
2022/08/27 05:14:53;;;;;;;21.55;11.70;;;614.80;2432.00;;;;;;5073206;28;20025;-74
2022/08/27 05:17:20;;;;;;;36.60;14.20;;;614.90;2432.00;;;;;;5073393;28;20469;-73
2022/08/27 05:19:46;;;;;;;23.65;11.57;;;615.00;2432.00;;;;;;5073020;28;20453;-73
2022/08/27 05:22:12;;;;;;;22.55;12.57;;;615.00;2432.00;;;;;;5073311;28;20044;-73
2022/08/27 05:24:38;;;;;;;29.70;13.30;;;615.10;2432.00;;;;;;5071857;28;20043;-73
2022/08/27 05:27:04;;;;;;;21.52;13.23;;;615.10;2432.00;;;;;;5073019;28;20025;-73
2022/08/27 05:29:30;;;;;;;31.98;14.27;;;615.00;2432.00;;;;;;5073108;28;20107;-75
2022/08/27 05:31:56;;;;;;;29.27;14.57;;;615.20;2432.00;;;;;;5073051;28;20017;-76
2022/08/27 05:34:22;;;;;;;24.42;14.90;;;615.10;2432.00;;;;;;5072872;28;20021;-74
2022/08/27 05:36:47;;;;;;;24.88;14.90;;;615.20;2432.00;;;;;;5072953;28;20458;-74
2022/08/27 05:39:13;;;;;;;22.35;15.30;;;615.30;2432.00;;;;;;5072764;28;20019;-76
2022/08/27 05:41:39;;;;;;;34.95;16.20;;;615.30;2432.00;;;;;;5072579;28;20434;-74
2022/08/27 05:44:08;;;;;;;23.70;14.55;;;615.30;2432.00;;;;;;5054435;28;20024;-75
2022/08/27 05:46:35;;;;;;;23.73;15.43;;;640.00;2432.00;;;;;;5060392;28;20037;-74
2022/08/27 05:49:01;;;;;;;32.05;14.88;;;640.10;2432.00;;;;;;5071503;28;20023;-76
2022/08/27 05:51:30;;;;;;;25.80;14.50;;;640.10;2432.00;;;;;;5072454;28;20031;-75
2022/08/27 05:54:10;;;;;;;24.70;14.50;;;640.20;2432.00;;;;;;5069632;28;20413;-75
2022/08/27 05:56:37;;;;;;;22.60;12.77;;;640.40;2432.00;;;;;;5034323;28;20506;-75
2022/08/27 06:01:49;;;;;;;30.87;13.07;;;640.50;2432.00;;;;;;5060817;28;20547;-75
2022/08/27 06:04:17;;;;;;;24.80;13.82;;;640.50;2432.00;;;;;;5072138;28;20542;-75
2022/08/27 06:06:44;;;;;;;30.58;13.20;;;640.60;2432.00;;;;;;5072570;28;20508;-75
2022/08/27 06:09:13;;;;;;;33.92;14.65;;;640.80;2432.00;;;;;;5072278;28;20025;-76
2022/08/27 06:11:39;;;;;;;22.92;12.13;;;640.70;2432.00;;;;;;5072104;28;20031;-75
2022/08/27 06:14:07;;;;;;;34.80;11.90;;;640.90;2432.00;;;;;;5054393;28;20111;-75
2022/08/27 06:16:34;;;;;;;23.45;12.13;;;665.60;2432.00;;;;;;5072283;28;20016;-75
2022/08/27 06:19:00;;;;;;;23.85;11.60;;;665.70;2432.00;;;;;;5054561;28;20128;-75
2022/08/27 06:21:25;;;;;;;25.90;11.82;;;665.70;2432.00;;;;;;5071929;28;20064;-75
2022/08/27 06:23:53;;;;;;;23.92;10.32;;;665.90;2432.00;;;;;;5072024;28;20032;-75
2022/08/27 06:26:21;;;;;;;17.52;11.50;;;666.00;2432.00;;;;;;5071871;28;20037;-74
2022/08/27 06:28:47;;;;;;;28.50;11.10;;;666.10;2432.00;;;;;;5058080;28;20031;-74
2022/08/27 06:31:25;;;;;;;18.60;11.23;;;666.20;2432.00;;;;;;5072025;28;20024;-75
2022/08/27 06:33:53;;;;;;;21.55;11.75;;;666.20;2432.00;;;;;;5071874;28;20031;-73
2022/08/27 06:36:22;;;;;;;23.85;11.77;;;666.30;2432.00;;;;;;5071705;28;20056;-74
2022/08/27 06:38:48;;;;;;;23.92;12.18;;;666.40;2432.00;;;;;;5049406;28;20017;-74
2022/08/27 06:41:17;;;;;;;24.08;12.25;;;666.50;2432.00;;;;;;5062683;28;20036;-74
2022/08/27 06:43:44;;;;;;;34.30;11.98;;;666.50;2432.00;;;;;;5071630;28;20024;-74
2022/08/27 06:46:15;;;;;;;20.15;10.90;;;691.20;2432.00;;;;;;5071874;28;20125;-74
2022/08/27 06:48:43;;;;;;;24.48;11.57;;;691.20;2432.00;;;;;;5071958;28;20370;-74
2022/08/27 06:51:19;;;;;;;29.80;10.35;;;691.20;2432.00;;;;;;5071490;28;20531;-74
2022/08/27 06:53:46;;;;;;;24.83;11.43;;;691.40;2432.00;;;;;;5053778;28;20390;-74
2022/08/27 06:56:14;;;;;;;25.23;11.35;;;691.40;2432.00;;;;;;5067786;28;20629;-75
2022/08/27 06:58:42;;;;;;;24.42;11.63;;;691.60;2432.00;;;;;;5061928;28;20402;-75
2022/08/27 07:01:19;;;;;;;28.92;11.43;;;691.70;2432.00;;;;;;5071575;28;20478;-76
2022/08/27 07:03:45;;;;;;;22.27;10.73;;;691.70;2432.00;;;;;;5071610;28;20063;-73
2022/08/27 07:06:13;;;;;;;25.73;12.38;;;691.80;2432.00;;;;;;5071672;28;20098;-74
2022/08/27 07:08:39;;;;;;;22.95;10.95;;;691.80;2432.00;;;;;;5071551;28;20016;-74
2022/08/27 07:11:07;;;;;;;17.50;10.00;;;691.90;2432.00;;;;;;5071512;28;20539;-74
2022/08/27 07:13:33;;;;;;;23.13;10.18;;;692.00;2432.00;;;;;;5058107;28;20031;-76
2022/08/27 07:16:12;;;;;;;33.08;12.43;;;692.10;2432.00;;;;;;5071669;28;20063;-75
2022/08/27 07:18:38;;;;;;;27.33;11.18;;;716.80;2432.00;;;;;;5071643;28;20078;-73
2022/08/27 07:21:04;;;;;;;33.58;12.02;;;716.80;2432.00;;;;;;5071541;28;20056;-77
2022/08/27 07:23:31;;;;;;;21.42;9.93;;;716.90;2432.00;;;;;;5071412;28;20017;-73
2022/08/27 07:25:57;;;;;;;21.85;10.15;;;717.00;2432.00;;;;;;5053395;28;20045;-75
2022/08/27 07:28:24;;;;;;;28.30;11.57;;;717.00;2432.00;;;;;;5057363;28;20124;-75
2022/08/27 07:30:51;;;;;;;24.35;10.48;;;717.20;2432.00;;;;;;5071379;28;20103;-75
2022/08/27 07:33:16;;;;;;;23.95;11.02;;;717.20;2432.00;;;;;;5071316;28;20029;-73
2022/08/27 07:35:44;;;;;;;27.27;10.70;;;717.30;2432.00;;;;;;5071369;28;20032;-75
2022/08/27 07:38:10;;;;;;;26.40;10.02;;;717.40;2432.00;;;;;;5071282;28;20382;-75
2022/08/27 07:40:36;;;;;;;25.02;11.88;;;717.40;2432.00;;;;;;5071514;28;20076;-74
2022/08/27 07:45:54;;;;;;;28.98;12.38;;;717.40;2432.00;;;;;;5071452;28;20085;-73
2022/08/27 07:48:22;;;;;;;26.05;11.32;;;717.50;2432.00;;;;;;5072909;28;20059;-74
2022/08/27 07:50:47;;;;;;;27.48;11.18;;;717.50;2432.00;;;;;;5074822;28;20032;-74
2022/08/27 07:53:13;;;;;;;27.10;9.98;;;717.70;2432.00;;;;;;5074970;28;20391;-74
2022/08/27 07:55:39;;;;;;;19.00;10.15;;;717.70;2432.00;;;;;;5074303;28;20090;-74
2022/08/27 07:58:05;;;;;;;21.50;9.73;;;717.70;2432.00;;;;;;5074861;28;20359;-74
2022/08/27 08:00:32;;;;;;;22.67;9.93;;;742.60;2432.00;;;;;;5074577;28;20856;-74
2022/08/27 08:02:58;;;;;;;24.10;9.27;;;742.40;2432.00;;;;;;5074908;28;20012;-76
2022/08/27 08:05:24;;;;;;;26.60;11.07;;;742.40;2432.00;;;;;;5065122;28;20082;-74
2022/08/27 08:07:50;;;;;;;31.42;10.13;;;742.50;2432.00;;;;;;5070201;28;20021;-77
2022/08/27 08:10:19;;;;;;;18.85;10.32;;;742.50;2432.00;;;;;;5066905;28;20021;-73
2022/08/27 08:12:45;;;;;;;24.58;10.52;;;742.60;2432.00;;;;;;5068541;28;20041;-77
2022/08/27 08:15:11;;;;;;;24.55;11.10;;;742.50;2432.00;;;;;;5050813;28;20067;-75
2022/08/27 08:17:38;;;;;;;29.92;9.82;;;742.60;2432.00;;;;;;5047915;28;20083;-75
2022/08/27 08:20:06;;;;;;;26.92;10.10;;;742.70;2432.00;;;;;;5042293;28;20398;-74
2022/08/27 08:22:32;;;;;;;25.70;8.82;;;742.80;2432.00;;;;;;5074493;28;20020;-76
2022/08/27 08:24:58;;;;;;;22.58;9.88;;;742.80;2432.00;;;;;;5074335;28;20036;-80
2022/08/27 08:27:24;;;;;;;23.83;10.13;;;742.80;2432.00;;;;;;5074311;28;20474;-74
2022/08/27 08:29:50;;;;;;;25.45;10.65;;;742.90;2432.00;;;;;;5074179;28;20029;-74
2022/08/27 08:32:16;;;;;;;23.35;10.25;;;742.90;2432.00;;;;;;5074070;28;20024;-79
2022/08/27 08:34:43;;;;;;;29.67;9.50;;;742.90;2432.00;;;;;;5056133;28;20068;-79
2022/08/27 08:37:09;;;;;;;18.33;9.70;;;743.00;2432.00;;;;;;5055435;28;20029;-73
2022/08/27 08:39:36;;;;;;;22.67;10.82;;;743.00;2432.00;;;;;;5074256;28;20028;-76
2022/08/27 08:42:05;;;;;;;27.52;9.27;;;743.00;2432.00;;;;;;5055554;28;20478;-76
2022/08/27 08:44:36;;;;;;;22.83;10.10;;;743.10;2432.00;;;;;;5055407;28;20016;-76
2022/08/27 08:47:18;;;;;;;30.85;10.88;;;743.10;2432.00;;;;;;5073950;28;20060;-77
2022/08/27 08:50:09;;;;;;;24.05;9.98;;;743.30;2432.00;;;;;;5055408;28;20025;-76
2022/08/27 08:52:48;;;;;;;23.02;10.23;;;743.30;2432.00;;;;;;5073715;28;20032;-75
2022/08/27 08:55:32;;;;;;;22.63;11.05;;;768.00;2432.00;;;;;;5047342;28;20056;-76
2022/08/27 08:58:26;;;;;;;23.13;10.27;;;768.10;2432.00;;;;;;5039774;28;20024;-76
2022/08/27 09:00:58;;;;;;;37.40;10.90;;;768.20;2432.00;;;;;;5052341;28;20068;-76
2022/08/27 09:03:24;;;;;;;25.58;10.93;;;768.20;2432.00;;;;;;5045111;28;20105;-78
2022/08/27 09:06:04;;;;;;;23.25;10.18;;;768.40;2432.00;;;;;;5046851;28;20037;-75
2022/08/27 09:08:39;;;;;;;22.15;8.50;;;768.50;2432.00;;;;;;5032102;28;20022;-75
2022/08/27 09:11:30;;;;;;;22.88;9.50;;;768.60;2304.00;;;;;;5047717;28;20017;-74
2022/08/27 09:14:04;;;;;;;18.55;7.53;;;768.60;2201.60;;;;;;5052318;28;20063;-76
2022/08/27 09:16:31;;;;;;;27.20;7.95;;;768.80;2124.80;;;;;;5037379;28;20475;-77
2022/08/27 09:19:00;;;;;;;16.30;7.72;;;793.60;2201.60;;;;;;5051999;28;20079;-80
2022/08/27 09:21:52;;;;;;;20.73;8.00;;;793.70;2099.20;;;;;;5038325;28;20029;-77
2022/08/27 09:24:41;;;;;;;13.05;7.22;;;793.90;2073.60;;;;;;5053139;28;20037;-78
2022/08/27 09:27:11;;;;;;;21.15;7.28;;;794.00;2099.20;;;;;;5014566;28;20132;-75
2022/08/27 09:29:47;;;;;;;15.35;7.65;;;794.10;2048.00;;;;;;5024289;28;20111;-81
2022/08/27 09:32:13;;;;;;;23.02;7.47;;;794.20;1945.60;;;;;;5031258;28;20033;-78
2022/08/27 09:34:42;;;;;;;16.75;7.40;;;794.20;1971.20;;;;;;5011728;28;20030;-76
2022/08/27 09:37:14;;;;;;;16.00;6.35;;;794.50;1996.80;;;;;;5010014;28;20507;-78
2022/08/27 09:39:47;;;;;;;21.85;7.53;;;819.20;1843.20;;;;;;5022922;28;20037;-78
2022/08/27 09:42:29;;;;;;;27.35;7.25;;;819.30;1843.20;;;;;;5014540;28;20049;-77
2022/08/27 09:44:56;;;;;;;18.33;7.72;;;819.30;1868.80;;;;;;5030715;28;20033;-78
2022/08/27 09:47:23;;;;;;;17.20;7.50;;;819.60;1843.20;;;;;;5014277;28;20386;-75
2022/08/27 09:50:00;;;;;;;15.45;6.85;;;819.70;1817.60;;;;;;5030846;28;20491;-78
2022/08/27 09:52:47;;;;;;;25.02;6.20;;;819.80;1766.40;;;;;;5031045;28;20025;-77
2022/08/27 09:55:45;;;;;;;19.23;6.70;;;819.90;1587.20;;;;;;5030492;28;20053;-77
2022/08/27 09:58:24;;;;;;;13.32;6.13;;;820.00;1587.20;;;;;;5016962;28;20053;-77
2022/08/27 10:01:14;;;;;;;16.42;5.72;;;844.80;1612.80;;;;;;5030913;28;20041;-78
2022/08/27 10:03:41;;;;;;;12.75;5.65;;;844.90;1561.60;;;;;;5017156;28;20033;-78
2022/08/27 10:06:07;;;;;;;15.38;5.93;;;845.10;1536.00;;;;;;5046513;28;20075;-81
2022/08/27 10:08:44;;;;;;;14.27;5.97;;;845.30;1510.40;;;;;;5052553;28;20017;-81
2022/08/27 10:11:15;;;;;;;18.60;5.95;;;845.50;1484.80;;;;;;5037982;28;20036;-81
2022/08/27 10:14:21;;;;;;;21.77;5.82;;;845.70;1510.40;;;;;;5052780;28;20039;-78
2022/08/27 10:17:06;;;;;;;18.25;6.30;;;870.40;1459.20;;;;;;5008871;28;20034;-79
2022/08/27 10:19:56;;;;;;;19.02;5.20;;;870.50;1459.20;;;;;;5023964;28;20055;-76
2022/08/27 10:22:58;;;;;;;23.17;6.35;;;870.70;1459.20;;;;;;5010277;28;20095;-77
2022/08/27 10:26:00;;;;;;;14.57;4.90;;;870.90;1408.00;;;;;;5016162;28;20081;-76
2022/08/27 10:28:40;;;;;;;20.50;5.47;;;870.90;1356.80;;;;;;5030025;28;20022;-75
2022/08/27 10:31:18;;;;;;;12.43;5.50;;;871.10;1356.80;;;;;;5030229;28;20030;-79
2022/08/27 10:33:55;;;;;;;23.45;5.70;;;;;;;;;;5025240;28;20029;-75
2022/08/27 10:36:33;;;;;;;27.65;6.65;;;896.00;1331.20;;;;;;5022421;28;20080;-76
2022/08/27 10:39:05;;;;;;;23.90;5.05;;;896.10;1331.20;;;;;;5016276;28;20034;-76
2022/08/27 10:41:38;;;;;;;20.52;5.97;;;896.30;1305.60;;;;;;5030139;28;20025;-80
2022/08/27 10:44:16;;;;;;;13.98;5.13;;;896.40;1254.40;;;;;;5029750;28;20021;-81
2022/08/27 10:46:50;;;;;;;16.95;5.35;;;896.30;1254.40;;;;;;5030134;28;20075;-75
2022/08/27 10:49:31;;;;;;;15.60;4.70;;;896.50;1228.80;;;;;;5016618;28;20032;-75
2022/08/27 10:52:19;;;;;;;16.50;4.57;;;896.60;1203.20;;;;;;5024094;28;20034;-76
2022/08/27 10:55:12;;;;;;;20.02;5.45;;;896.50;1203.20;;;;;;5055822;28;20056;-80
2022/08/27 10:58:03;;;;;;;17.38;5.60;;;896.80;1228.80;;;;;;5057747;28;20087;-76
2022/08/27 11:00:47;;;;;;;11.48;4.30;;;896.80;1228.80;;;;;;5071631;28;20059;-79
2022/08/27 11:03:16;;;;;;;15.80;5.50;;;;;;;;;;5071768;28;20023;-77
2022/08/27 11:05:46;;;;;;;17.55;5.88;;;921.60;1203.20;;;;;;5071975;28;20504;-82
2022/08/27 11:08:53;;;;;;;17.70;5.72;;;922.00;1203.20;;;;;;5035394;28;20494;-80
2022/08/27 11:11:35;;;;;;;14.77;5.72;;;922.00;1203.20;;;;;;4967217;28;20042;-77
2022/08/27 11:14:08;;;;;;;21.70;5.40;;;922.00;1254.40;;;;;;4954867;28;20105;-82
2022/08/27 11:16:44;;;;;;;12.70;5.53;;;922.00;1228.80;;;;;;4971154;28;20023;-78
2022/08/27 11:19:26;;;;;;;15.63;5.07;;;922.00;1228.80;;;;;;4954828;28;20135;-79
2022/08/27 11:22:08;;;;;;;21.95;6.97;;;922.20;1228.80;;;;;;4955753;28;20023;-81
2022/08/27 11:24:52;;;;;;;22.90;5.70;;;922.30;1228.80;;;;;;4974980;28;20637;-81
2022/08/27 11:27:24;;;;;;;19.63;5.93;;;922.20;1254.40;;;;;;4974867;28;20038;-76
2022/08/27 11:30:07;;;;;;;15.32;5.13;;;922.40;1228.80;;;;;;4961046;28;20031;-82
2022/08/27 11:32:35;;;;;;;17.80;4.63;;;922.00;1280.00;;;;;;4974856;28;20031;-78
2022/08/27 11:35:19;;;;;;;18.70;4.75;;;896.60;1228.80;;;;;;4974438;28;20110;-77
2022/08/27 11:38:03;;;;;;;17.52;5.65;;;871.30;1280.00;;;;;;4974525;28;20314;-76
2022/08/27 11:40:40;;;;;;;20.60;5.95;;;870.90;1305.60;;;;;;4974579;28;20473;-76
2022/08/27 11:43:09;;;;;;;23.20;6.63;;;870.70;1305.60;;;;;;4974510;28;20035;-80
2022/08/27 11:45:58;;;;;;;24.08;5.38;;;870.50;1305.60;;;;;;5031752;28;20062;-76
2022/08/27 11:48:40;;;;;;;16.13;5.50;;;870.40;1305.60;;;;;;5057224;28;20117;-76
2022/08/27 11:51:27;;;;;;;16.75;5.30;;;845.70;1254.40;;;;;;5075166;28;20122;-76
2022/08/27 11:54:00;;;;;;;12.18;4.97;;;845.70;1228.80;;;;;;5072091;28;20086;-76
2022/08/27 11:56:29;;;;;;;21.65;6.18;;;845.60;1280.00;;;;;;5058625;28;20098;-77
2022/08/27 11:59:07;;;;;;;12.23;6.00;;;845.60;1305.60;;;;;;5067099;28;20490;-75
2022/08/27 12:01:33;;;;;;;17.20;4.97;;;845.40;1331.20;;;;;;5042114;28;20436;-77
2022/08/27 12:04:18;;;;;;;20.65;5.57;;;870.50;1331.20;;;;;;5063202;28;20029;-76
2022/08/27 12:06:51;;;;;;;18.65;5.72;;;870.90;1331.20;;;;;;5043597;28;20032;-78
2022/08/27 12:09:21;;;;;;;11.95;4.85;;;871.30;1305.60;;;;;;5074800;28;20033;-78
2022/08/27 12:12:15;;;;;;;9.82;4.80;;;871.00;1305.60;;;;;;5056666;28;20036;-75
2022/08/27 12:15:23;;;;;;;15.70;5.63;;;870.90;1280.00;;;;;;5056789;28;20367;-75
2022/08/27 12:18:03;;;;;;;20.17;5.60;;;870.80;1331.20;;;;;;4980241;28;20035;-83
2022/08/27 12:21:01;;;;;;;20.15;6.18;;;870.70;1331.20;;;;;;4981202;28;20496;-80
2022/08/27 12:23:57;;;;;;;14.70;5.25;;;870.90;1305.60;;;;;;4992940;28;20054;-77
2022/08/27 12:26:26;;;;;;;22.35;6.28;;;871.30;1305.60;;;;;;4954126;29;20051;-76
2022/08/27 12:29:22;;;;;;;18.52;5.35;;;871.30;1331.20;;;;;;4954552;29;20036;-76
2022/08/27 12:31:49;;;;;;;18.23;5.40;;;871.30;1356.80;;;;;;4954061;29;20518;-74